Time;durP1;ratioP1;P1;durP2;ratioP2;P2;SDS_P1;SDS_P2;PMS_P1;PMS_P2;Temp;Humidity;BMP_temperature;BMP_pressure;BME280_temperature;BME280_humidity;BME280_pressure;Samples;Min_cycle;Max_cycle;Signal;HPM_P1;HPM_P2
2021/06/21 00:00:09;;;;;;;6.50;1.50;;;;;;;15.92;87.36;100867.78;5070094;28;20047;-71
2021/06/21 00:02:38;;;;;;;8.23;1.70;;;;;;;15.82;88.24;100856.63;5073145;28;20131;-71
2021/06/21 00:05:04;;;;;;;4.68;1.70;;;;;;;15.84;87.66;100854.63;5066915;28;20135;-71
2021/06/21 00:07:30;;;;;;;8.15;1.92;;;;;;;15.84;87.62;100852.81;5076435;28;20143;-71
2021/06/21 00:09:55;;;;;;;11.70;2.53;;;;;;;15.82;88.64;100851.31;5082902;28;20165;-70
2021/06/21 00:12:21;;;;;;;13.07;1.60;;;;;;;15.84;88.47;100854.63;5066749;28;20120;-71
2021/06/21 00:14:48;;;;;;;8.77;2.10;;;;;;;15.74;88.79;100853.03;5064636;28;20497;-71
2021/06/21 00:17:16;;;;;;;10.13;1.80;;;;;;;15.74;89.35;100855.69;5071685;28;20048;-70
2021/06/21 00:19:44;;;;;;;5.90;2.25;;;;;;;15.70;88.93;100864.13;5056802;28;20029;-70
2021/06/21 00:22:12;;;;;;;9.75;2.22;;;;;;;15.66;89.62;100866.28;5069224;28;20044;-72
2021/06/21 00:24:38;;;;;;;8.50;2.33;;;;;;;15.71;89.06;100869.25;5062448;28;20032;-71
2021/06/21 00:27:09;;;;;;;8.85;2.05;;;;;;;15.68;89.37;100871.41;5079263;28;20718;-71
2021/06/21 00:29:35;;;;;;;15.90;2.35;;;;;;;15.54;90.07;100871.19;5067026;28;20131;-71
2021/06/21 00:32:18;;;;;;;7.93;2.17;;;;;;;15.52;90.28;100894.34;5074504;28;20798;-71
2021/06/21 00:35:20;;;;;;;8.48;1.98;;;;;;;15.51;90.17;100887.38;5067295;28;20569;-71
2021/06/21 00:38:11;;;;;;;15.77;2.78;;;;;;;15.38;90.85;100877.38;5068919;28;20819;-72
2021/06/21 00:40:38;;;;;;;9.98;2.40;;;;;;;15.33;90.56;100884.19;5055738;28;20044;-72
2021/06/21 00:43:04;;;;;;;14.25;2.30;;;;;;;15.34;91.21;100884.03;5075309;28;20028;-71
2021/06/21 00:45:32;;;;;;;10.63;2.63;;;;;;;15.26;91.06;100870.06;5055772;28;20085;-71
2021/06/21 00:47:58;;;;;;;9.68;2.63;;;;;;;15.30;90.99;100885.38;5061374;28;20040;-72
2021/06/21 00:50:26;;;;;;;11.35;2.35;;;;;;;15.37;90.06;100886.31;5068471;28;20043;-72
2021/06/21 00:52:57;;;;;;;7.82;2.15;;;;;;;15.29;90.80;100894.28;5071281;28;20883;-71
2021/06/21 00:55:24;;;;;;;10.32;2.40;;;;;;;15.19;91.35;100878.66;5077401;28;20412;-71
2021/06/21 00:57:50;;;;;;;11.65;2.72;;;;;;;15.18;91.85;100884.09;5083297;28;20043;-73
2021/06/21 01:00:18;;;;;;;10.38;2.30;;;;;;;15.21;92.38;100885.59;5080013;28;20039;-72
2021/06/21 01:02:44;;;;;;;14.98;2.50;;;;;;;15.20;92.13;100879.50;5065420;28;20094;-71
2021/06/21 01:05:23;;;;;;;12.10;2.50;;;;;;;15.13;92.30;100863.50;5074558;28;20031;-70
2021/06/21 01:07:49;;;;;;;11.70;2.17;;;;;;;15.21;91.98;100864.47;5082456;28;20040;-73
2021/06/21 01:10:17;;;;;;;11.18;2.90;;;;;;;15.19;91.50;100851.41;5059355;28;20044;-72
2021/06/21 01:12:46;;;;;;;10.98;2.42;;;;;;;15.30;91.67;100842.28;5083992;28;20050;-71
2021/06/21 01:15:13;;;;;;;7.35;2.50;;;;;;;15.29;91.07;100848.53;5080950;28;20236;-72
2021/06/21 01:17:45;;;;;;;11.55;2.97;;;;;;;15.37;90.03;100841.41;5076844;28;20552;-71
2021/06/21 01:20:47;;;;;;;12.32;3.10;;;;;;;15.33;89.93;100836.63;5064295;28;20036;-71
2021/06/21 01:23:50;;;;;;;12.88;3.90;;;;;;;15.30;90.16;100827.22;5068020;28;20048;-70
2021/06/21 01:26:22;;;;;;;6.57;2.53;;;;;;;15.30;89.78;100821.94;5083007;28;20038;-71
2021/06/21 01:29:21;;;;;;;8.80;3.03;;;;;;;15.38;90.51;100819.25;5061089;28;20032;-71
2021/06/21 01:31:50;;;;;;;8.48;3.05;;;;;;;15.34;89.73;100825.06;5075177;28;20032;-71
2021/06/21 01:34:18;;;;;;;7.70;2.67;;;;;;;15.33;90.12;100818.97;5058941;28;20065;-71
2021/06/21 01:36:51;;;;;;;14.50;2.97;;;;;;;15.37;89.83;100817.59;5063931;28;20032;-71
2021/06/21 01:39:20;;;;;;;12.90;3.30;;;;;;;15.33;90.17;100807.56;5064351;28;20035;-72
2021/06/21 01:41:51;;;;;;;11.82;3.20;;;;;;;15.33;90.13;100802.25;5081730;28;20043;-70
2021/06/21 01:44:19;;;;;;;8.32;3.05;;;;;;;15.30;89.95;100813.22;5074313;28;20040;-71
2021/06/21 01:46:54;;;;;;;11.95;3.58;;;;;;;15.33;89.37;100812.84;5072822;28;20094;-70
2021/06/21 01:49:22;;;;;;;9.45;2.90;;;;;;;15.36;90.42;100810.66;5047044;28;20400;-70
2021/06/21 01:51:53;;;;;;;11.50;2.83;;;;;;;15.35;90.25;100809.03;5060031;28;20039;-71
2021/06/21 01:54:24;;;;;;;10.13;3.38;;;;;;;15.28;90.01;100807.28;5070387;28;20461;-71
2021/06/21 01:56:50;;;;;;;13.02;3.95;;;;;;;15.27;90.77;100802.97;5075342;28;20036;-70
2021/06/21 01:59:17;;;;;;;12.02;3.97;;;;;;;15.16;90.81;100790.97;5072649;28;20026;-71
2021/06/21 02:01:46;;;;;;;22.15;4.55;;;;;;;15.10;91.69;100781.13;5066280;28;20113;-71
2021/06/21 02:04:14;;;;;;;12.07;3.65;;;;;;;15.21;91.16;100769.34;5073803;28;20063;-71
2021/06/21 02:06:41;;;;;;;11.68;3.45;;;;;;;15.20;92.47;100763.25;5074028;28;20061;-71
2021/06/21 02:09:08;;;;;;;22.30;4.38;;;;;;;15.11;92.73;100766.94;5073985;28;20039;-71
2021/06/21 02:11:35;;;;;;;9.10;4.00;;;;;;;15.10;92.00;100760.81;5077942;28;20036;-71
2021/06/21 02:14:14;;;;;;;11.30;4.15;;;;;;;15.21;91.48;100775.44;5078561;28;20036;-70
2021/06/21 02:16:52;;;;;;;13.60;4.78;;;;;;;15.24;91.74;100769.81;5074757;28;20028;-70
2021/06/21 02:19:27;;;;;;;13.60;4.15;;;;;;;15.30;91.55;100782.31;5075107;28;20354;-71
2021/06/21 02:21:54;;;;;;;14.00;4.72;;;;;;;15.25;92.09;100767.97;5063423;28;20040;-70
2021/06/21 02:24:20;;;;;;;10.65;5.03;;;;;;;15.22;91.66;100765.69;5068617;28;20186;-70
2021/06/21 02:26:46;;;;;;;16.50;5.00;;;;;;;15.18;91.24;100771.34;5078358;28;20117;-70
2021/06/21 02:29:15;;;;;;;15.95;4.85;;;;;;;15.20;90.74;100776.44;5066282;28;20039;-71
2021/06/21 02:31:40;;;;;;;13.45;4.68;;;;;;;15.14;91.62;100782.41;5070041;28;20041;-73
2021/06/21 02:34:06;;;;;;;13.20;4.65;;;;;;;15.12;91.84;100790.50;5082878;28;20043;-72
2021/06/21 02:36:31;;;;;;;15.20;4.70;;;;;;;15.08;92.33;100793.69;5082621;28;20035;-71
2021/06/21 02:38:59;;;;;;;13.68;4.88;;;;;;;15.03;94.26;100791.59;5074263;28;20032;-70
2021/06/21 02:41:25;;;;;;;13.25;4.97;;;;;;;15.06;94.59;100796.50;5075744;28;20035;-71
2021/06/21 02:43:51;;;;;;;13.40;5.38;;;;;;;15.01;94.60;100808.59;5099099;28;20031;-73
2021/06/21 02:46:16;;;;;;;11.55;4.93;;;;;;;15.01;94.38;100806.75;5078631;28;20441;-73
2021/06/21 02:48:43;;;;;;;11.07;4.82;;;;;;;14.87;95.83;100808.31;5082511;28;20135;-72
2021/06/21 02:51:15;;;;;;;13.20;5.68;;;;;;;14.89;95.93;100808.16;5080812;28;20681;-73
2021/06/21 02:53:51;;;;;;;17.15;5.97;;;;;;;14.81;97.05;100811.66;5102794;28;20138;-72
2021/06/21 02:56:39;;;;;;;11.48;6.18;;;;;;;14.76;96.94;100825.38;5082261;28;20040;-72
2021/06/21 02:59:10;;;;;;;17.00;5.88;;;;;;;14.78;97.70;100822.56;5075581;28;20424;-71
2021/06/21 03:01:40;;;;;;;19.38;6.55;;;;;;;14.69;98.08;100820.94;5053350;28;20633;-71
2021/06/21 03:04:08;;;;;;;16.75;6.40;;;;;;;14.72;98.91;100816.16;5079657;28;20052;-72
2021/06/21 03:06:36;;;;;;;11.25;6.57;;;;;;;14.69;99.57;100813.03;5075341;28;20112;-71
2021/06/21 03:09:03;;;;;;;17.30;6.45;;;;;;;14.61;99.83;100800.69;5076006;28;20044;-72
2021/06/21 03:11:29;;;;;;;16.85;6.47;;;;;;;14.63;100.00;100798.69;5061375;28;20625;-72
2021/06/21 03:13:55;;;;;;;16.20;6.88;;;;;;;14.53;100.00;100776.94;5077187;28;20127;-72
2021/06/21 03:16:22;;;;;;;18.70;7.25;;;;;;;14.61;100.00;100795.41;5071503;28;20031;-72
2021/06/21 03:18:49;;;;;;;14.18;6.95;;;;;;;14.64;100.00;100791.63;5068944;28;20032;-71
2021/06/21 03:21:16;;;;;;;18.27;7.95;;;;;;;14.62;100.00;100794.44;5066142;28;20020;-73
2021/06/21 03:23:42;;;;;;;15.75;7.03;;;;;;;14.58;100.00;100801.06;5071571;28;20032;-72
2021/06/21 03:26:08;;;;;;;16.95;7.05;;;;;;;14.53;100.00;100796.25;5078814;28;20075;-72
2021/06/21 03:28:33;;;;;;;12.13;6.60;;;;;;;14.54;100.00;100784.69;5067275;28;20047;-72
2021/06/21 03:31:03;;;;;;;15.05;7.50;;;;;;;14.48;100.00;100779.28;5057512;28;20039;-72
2021/06/21 03:33:30;;;;;;;14.82;7.65;;;;;;;14.47;100.00;100764.44;5074122;28;20051;-72
2021/06/21 03:35:55;;;;;;;19.13;7.78;;;;;;;14.47;100.00;100767.91;5072264;28;20028;-72
2021/06/21 03:38:24;;;;;;;20.30;7.60;;;;;;;14.41;100.00;100756.22;5083330;28;20035;-72
2021/06/21 03:40:51;;;;;;;30.73;8.57;;;;;;;14.43;100.00;100753.41;5066606;28;20024;-71
2021/06/21 03:43:20;;;;;;;17.15;8.07;;;;;;;14.39;100.00;100755.56;5040785;28;20032;-70
2021/06/21 03:45:47;;;;;;;19.60;8.20;;;;;;;14.32;100.00;100759.06;5076048;28;20036;-70
2021/06/21 03:48:13;;;;;;;14.82;7.80;;;;;;;14.39;100.00;100760.84;5085320;28;20455;-71
2021/06/21 03:50:39;;;;;;;14.48;8.07;;;;;;;14.38;100.00;100758.38;5076734;28;20043;-71
2021/06/21 03:53:06;;;;;;;18.90;8.00;;;;;;;14.36;100.00;100755.91;5071346;28;20024;-71
2021/06/21 03:55:32;;;;;;;13.05;7.65;;;;;;;14.37;100.00;100754.06;5090235;28;20057;-71
2021/06/21 03:57:58;;;;;;;12.55;7.70;;;;;;;14.38;100.00;100755.72;5077236;28;20073;-71
2021/06/21 04:00:26;;;;;;;18.30;8.15;;;;;;;14.37;100.00;100751.44;5062607;28;20501;-71
2021/06/21 04:02:52;;;;;;;17.98;7.72;;;;;;;14.36;100.00;100752.44;5074931;28;20028;-71
2021/06/21 04:05:18;;;;;;;13.75;7.35;;;;;;;14.29;100.00;100748.84;5079203;28;20082;-71
2021/06/21 04:07:46;;;;;;;13.45;7.53;;;;;;;14.26;100.00;100739.47;5077183;28;20048;-71
2021/06/21 04:10:15;;;;;;;17.27;8.50;;;;;;;14.28;100.00;100737.47;5065560;28;20029;-72
2021/06/21 04:12:41;;;;;;;13.00;7.07;;;;;;;14.36;100.00;100734.78;5070876;28;20027;-70
2021/06/21 04:15:10;;;;;;;16.02;7.28;;;;;;;14.31;100.00;100731.00;5078230;28;20038;-70
2021/06/21 04:17:38;;;;;;;12.30;6.50;;;;;;;14.24;100.00;100722.13;5082108;28;20036;-71
2021/06/21 04:20:09;;;;;;;11.15;6.20;;;;;;;14.21;100.00;100728.59;5078102;28;20032;-71
2021/06/21 04:22:35;;;;;;;13.45;6.85;;;;;;;14.27;100.00;100724.44;5072963;28;20054;-71
2021/06/21 04:25:00;;;;;;;19.25;7.38;;;;;;;14.20;100.00;100716.38;5065887;28;20035;-71
2021/06/21 04:27:26;;;;;;;16.35;6.72;;;;;;;14.23;100.00;100704.69;5075740;28;20036;-70
2021/06/21 04:29:51;;;;;;;18.08;6.63;;;;;;;14.27;100.00;100693.59;5071956;28;20653;-70
2021/06/21 04:32:17;;;;;;;11.27;5.93;;;;;;;14.23;100.00;100687.03;5071270;28;20088;-70
2021/06/21 04:34:43;;;;;;;18.65;5.90;;;;;;;14.23;100.00;100710.78;5077704;28;20086;-71
2021/06/21 04:37:08;;;;;;;13.93;5.80;;;;;;;14.24;100.00;100724.78;5082302;28;20070;-70
2021/06/21 04:39:34;;;;;;;11.38;5.90;;;;;;;14.20;100.00;100740.13;5062646;28;20043;-71
2021/06/21 04:41:59;;;;;;;12.02;5.63;;;;;;;14.19;100.00;100741.13;5077271;28;20039;-70
2021/06/21 04:44:25;;;;;;;13.85;5.95;;;;;;;14.22;100.00;100727.56;5079528;28;20107;-72
2021/06/21 04:46:51;;;;;;;13.68;6.90;;;;;;;14.19;100.00;100722.66;5081446;28;20072;-70
2021/06/21 04:49:16;;;;;;;13.50;6.20;;;;;;;14.23;100.00;100713.41;5080798;28;20352;-70
2021/06/21 04:51:44;;;;;;;15.25;5.95;;;;;;;14.18;100.00;100708.66;5072671;28;20083;-71
2021/06/21 04:54:10;;;;;;;6.30;5.70;;;;;;;14.17;100.00;100708.81;5068054;28;20405;-71
2021/06/21 04:56:38;;;;;;;11.68;5.90;;;;;;;14.24;100.00;100707.16;5078916;28;20035;-71
2021/06/21 04:59:04;;;;;;;13.63;5.90;;;;;;;14.25;100.00;100727.25;5080125;28;20156;-71
2021/06/21 05:01:30;;;;;;;14.98;5.43;;;;;;;14.29;100.00;100719.81;5079564;28;20020;-71
2021/06/21 05:03:57;;;;;;;8.02;5.18;;;;;;;14.36;100.00;100724.22;5085148;28;20032;-71
2021/06/21 05:06:22;;;;;;;9.73;5.57;;;;;;;14.38;100.00;100718.78;5073658;28;20044;-71
2021/06/21 05:08:48;;;;;;;7.55;4.80;;;;;;;14.35;100.00;100709.41;5079186;28;20040;-71
2021/06/21 05:11:14;;;;;;;10.02;5.20;;;;;;;14.31;100.00;100710.72;5071404;28;20039;-70
2021/06/21 05:13:40;;;;;;;11.15;5.45;;;;;;;14.31;100.00;100708.09;5069715;28;20035;-71
2021/06/21 05:16:05;;;;;;;12.27;5.30;;;;;;;14.36;100.00;100723.41;5070593;28;20647;-70
2021/06/21 05:18:31;;;;;;;7.22;5.00;;;;;;;14.37;100.00;100707.41;5066106;28;20107;-72
2021/06/21 05:20:57;;;;;;;5.22;4.70;;;;;;;14.35;100.00;100703.28;5072723;28;20059;-71
2021/06/21 05:23:23;;;;;;;8.77;4.70;;;;;;;14.32;100.00;100703.66;5046225;28;20044;-72
2021/06/21 05:25:48;;;;;;;11.93;4.78;;;;;;;14.32;100.00;100696.56;5070608;28;20040;-70
2021/06/21 05:28:14;;;;;;;10.73;5.10;;;;;;;14.31;100.00;100680.88;5076851;28;20035;-70
2021/06/21 05:30:41;;;;;;;8.48;4.60;;;;;;;14.31;100.00;100668.50;5071119;28;20032;-73
2021/06/21 05:33:06;;;;;;;6.45;4.60;;;;;;;14.41;100.00;100653.31;5068436;28;20209;-71
2021/06/21 05:35:32;;;;;;;11.07;4.43;;;;;;;14.36;100.00;100638.97;5065160;28;20044;-71
2021/06/21 05:37:58;;;;;;;9.65;4.65;;;;;;;14.39;100.00;100626.25;5068152;28;20032;-71
2021/06/21 05:40:23;;;;;;;13.98;4.30;;;;;;;14.38;100.00;100616.69;5064134;28;20032;-71
2021/06/21 05:42:49;;;;;;;11.45;4.40;;;;;;;14.47;100.00;100616.66;5071312;28;20063;-72
2021/06/21 05:45:17;;;;;;;8.00;4.38;;;;;;;14.43;100.00;100615.34;5076074;28;20047;-72
2021/06/21 05:47:43;;;;;;;8.20;4.00;;;;;;;14.35;100.00;100635.53;5082966;28;20150;-72
2021/06/21 05:50:09;;;;;;;9.20;4.50;;;;;;;14.38;100.00;100619.34;5068967;28;20147;-72
2021/06/21 05:52:35;;;;;;;5.97;3.95;;;;;;;14.34;100.00;100614.59;5070531;28;20036;-72
2021/06/21 05:55:00;;;;;;;5.10;4.22;;;;;;;14.43;100.00;100621.47;5068378;28;20094;-72
2021/06/21 05:57:30;;;;;;;7.22;4.45;;;;;;;14.48;100.00;100610.38;5076019;28;20039;-71
2021/06/21 05:59:56;;;;;;;9.75;3.65;;;;;;;14.45;100.00;100608.06;5080721;28;20036;-70
2021/06/21 06:02:23;;;;;;;6.75;4.32;;;;;;;14.50;100.00;100617.09;5074301;28;20093;-70
2021/06/21 06:04:49;;;;;;;7.60;3.83;;;;;;;14.45;100.00;100624.75;5079321;28;20653;-72
2021/06/21 06:07:15;;;;;;;4.40;3.90;;;;;;;14.49;100.00;100612.84;5074201;28;20127;-73
2021/06/21 06:09:41;;;;;;;7.85;3.88;;;;;;;14.42;100.00;100611.91;5073381;28;20119;-72
2021/06/21 06:12:07;;;;;;;7.30;3.53;;;;;;;14.49;100.00;100606.75;5080386;28;20031;-73
2021/06/21 06:14:33;;;;;;;8.85;4.32;;;;;;;14.54;100.00;100602.59;5075035;28;20049;-72
2021/06/21 06:16:59;;;;;;;6.22;3.47;;;;;;;14.48;100.00;100591.91;5073667;28;20036;-73
2021/06/21 06:19:24;;;;;;;4.25;3.33;;;;;;;14.51;100.00;100583.63;5078985;28;20036;-75
2021/06/21 06:21:50;;;;;;;18.05;4.18;;;;;;;14.45;100.00;100585.16;5064659;28;20039;-75
2021/06/21 06:24:16;;;;;;;5.45;4.07;;;;;;;14.51;100.00;100607.41;5066612;28;20036;-73
2021/06/21 06:26:43;;;;;;;6.03;3.95;;;;;;;14.49;100.00;100620.75;5060964;28;20085;-74
2021/06/21 06:29:19;;;;;;;8.68;4.18;;;;;;;14.48;100.00;100619.09;5053414;28;20049;-74
2021/06/21 06:31:47;;;;;;;5.47;3.83;;;;;;;14.52;100.00;100593.19;5077914;28;20028;-74
2021/06/21 06:34:13;;;;;;;8.52;4.22;;;;;;;14.51;100.00;100581.00;5048579;28;20536;-77
2021/06/21 06:36:39;;;;;;;7.80;4.10;;;;;;;14.56;100.00;100586.56;5067647;28;20520;-75
2021/06/21 06:39:06;;;;;;;4.82;3.83;;;;;;;14.56;100.00;100597.94;5074078;28;20029;-75
2021/06/21 06:41:31;;;;;;;6.05;3.75;;;;;;;14.58;100.00;100592.53;5063263;28;20033;-75
2021/06/21 06:43:57;;;;;;;6.00;3.88;;;;;;;14.59;100.00;100589.69;5047368;28;20039;-75
2021/06/21 06:46:25;;;;;;;6.32;4.15;;;;;;;14.67;100.00;100596.72;5055901;28;20036;-74
2021/06/21 06:48:50;;;;;;;6.32;3.92;;;;;;;14.67;100.00;100586.16;5076635;28;20032;-76
2021/06/21 06:51:16;;;;;;;6.35;3.90;;;;;;;14.77;100.00;100585.94;5077690;28;20040;-75
2021/06/21 06:53:52;;;;;;;4.50;3.72;;;;;;;14.75;100.00;100587.94;5081907;28;20048;-74
2021/06/21 06:59:03;;;;;;;5.88;4.13;;;;;;;14.73;100.00;100598.69;5085191;28;20024;-75
2021/06/21 07:01:29;;;;;;;4.97;3.33;;;;;;;14.68;100.00;100601.03;5061171;28;20756;-74
2021/06/21 07:03:56;;;;;;;3.97;3.53;;;;;;;14.74;100.00;100612.69;5081598;28;20038;-75
2021/06/21 07:06:21;;;;;;;9.68;3.63;;;;;;;14.74;100.00;100625.91;5066430;28;20028;-76
2021/06/21 07:08:48;;;;;;;7.70;4.00;;;;;;;14.72;100.00;100639.25;5086612;28;20039;-76
2021/06/21 07:11:15;;;;;;;8.32;3.88;;;;;;;14.67;100.00;100630.22;5079719;28;20035;-75
2021/06/21 07:13:40;;;;;;;6.05;4.05;;;;;;;14.68;100.00;100631.88;5073503;28;20028;-75
2021/06/21 07:16:06;;;;;;;6.63;3.92;;;;;;;14.70;100.00;100633.34;5086559;28;20039;-75
2021/06/21 07:18:31;;;;;;;8.48;4.25;;;;;;;14.65;100.00;100619.84;5087168;28;20053;-76
2021/06/21 07:20:57;;;;;;;9.38;4.47;;;;;;;14.69;100.00;100623.81;5067886;28;20040;-76
2021/06/21 07:23:23;;;;;;;5.03;4.53;;;;;;;14.73;100.00;100618.97;5058315;28;20520;-77
2021/06/21 07:25:48;;;;;;;6.85;4.68;;;;;;;14.75;100.00;100611.72;5067705;28;20090;-77
2021/06/21 07:28:16;;;;;;;7.40;4.80;;;;;;;14.75;100.00;100606.44;5050688;28;20036;-77
2021/06/21 07:30:43;;;;;;;5.07;4.57;;;;;;;14.79;100.00;100608.53;5065116;28;20067;-76
2021/06/21 07:33:09;;;;;;;4.18;3.70;;;;;;;14.87;100.00;100612.09;5053110;28;20039;-77
2021/06/21 07:35:35;;;;;;;7.07;4.40;;;;;;;14.83;100.00;100602.91;5076987;28;20086;-76
2021/06/21 07:38:02;;;;;;;6.18;4.10;;;;;;;14.87;100.00;100604.19;5083151;28;20036;-75
2021/06/21 07:40:28;;;;;;;5.35;3.63;;;;;;;14.85;100.00;100624.66;5039814;28;20028;-74
2021/06/21 07:42:53;;;;;;;6.63;3.45;;;;;;;14.84;100.00;100642.31;5054851;28;20040;-75
2021/06/21 07:45:19;;;;;;;7.47;3.58;;;;;;;14.86;100.00;100644.78;5079703;28;20090;-74
2021/06/21 07:47:45;;;;;;;4.25;3.50;;;;;;;14.83;100.00;100638.03;5078757;28;20044;-75
2021/06/21 07:50:11;;;;;;;5.28;3.83;;;;;;;14.92;100.00;100649.38;5049896;28;20128;-74
2021/06/21 07:52:37;;;;;;;4.35;3.00;;;;;;;14.92;100.00;100650.19;5079327;28;20192;-73
2021/06/21 07:55:03;;;;;;;5.85;2.90;;;;;;;14.92;100.00;100649.38;5056453;28;20518;-75
2021/06/21 07:57:30;;;;;;;5.10;2.45;;;;;;;14.97;100.00;100652.28;5069594;28;20205;-75
2021/06/21 08:00:00;;;;;;;3.28;2.83;;;;;;;14.97;100.00;100653.13;5053654;28;20067;-75
2021/06/21 08:02:38;;;;;;;5.88;3.03;;;;;;;15.09;100.00;100647.41;5056106;28;20066;-76
2021/06/21 08:05:04;;;;;;;4.10;2.70;;;;;;;15.15;100.00;100649.34;5047659;28;20087;-74
2021/06/21 08:07:29;;;;;;;4.55;2.42;;;;;;;15.24;100.00;100648.25;5069840;28;20035;-74
2021/06/21 08:09:54;;;;;;;4.68;2.22;;;;;;;15.26;100.00;100656.03;5078177;28;20918;-76
2021/06/21 08:12:20;;;;;;;2.85;2.42;;;;;;;15.27;100.00;100652.38;5077882;28;20058;-76
2021/06/21 08:14:46;;;;;;;5.13;2.58;;;;;;;15.15;100.00;100650.16;5058123;28;20028;-75
2021/06/21 08:17:12;;;;;;;3.33;2.50;;;;;;;15.19;100.00;100648.78;5046819;28;20063;-76
2021/06/21 08:19:37;;;;;;;4.82;2.65;;;;;;;15.29;100.00;100650.34;5061067;28;20157;-75
2021/06/21 08:22:03;;;;;;;6.20;3.80;;;;;;;15.23;100.00;100649.25;5058070;28;20044;-75
2021/06/21 08:24:29;;;;;;;6.25;3.13;;;;;;;15.14;100.00;100653.81;5075896;28;20040;-74
2021/06/21 08:26:59;;;;;;;5.32;2.90;;;;;;;15.18;100.00;100647.16;5077741;28;20035;-74
2021/06/21 08:29:25;;;;;;;3.08;2.40;;;;;;;15.33;100.00;100646.34;5069275;28;20096;-74
2021/06/21 08:31:50;;;;;;;3.65;2.42;;;;;;;15.42;100.00;100649.75;5067425;28;20031;-76
2021/06/21 08:34:16;;;;;;;4.40;2.45;;;;;;;15.44;100.00;100653.03;5067612;28;20112;-77
2021/06/21 08:36:41;;;;;;;2.50;2.30;;;;;;;15.43;100.00;100654.03;5046696;28;20040;-79
2021/06/21 08:39:07;;;;;;;2.35;1.70;;;;;;;15.35;100.00;100650.47;5065206;28;20185;-76
2021/06/21 08:41:33;;;;;;;3.67;1.52;;;;;;;15.41;100.00;100654.22;5047693;28;20040;-76
2021/06/21 08:44:00;;;;;;;4.45;1.73;;;;;;;15.47;100.00;100653.50;5069363;28;20045;-76
2021/06/21 08:46:25;;;;;;;1.55;1.27;;;;;;;15.41;100.00;100656.88;5077036;28;20031;-77
2021/06/21 08:48:55;;;;;;;1.63;1.38;;;;;;;15.41;100.00;100653.38;5055514;28;20105;-77
2021/06/21 08:51:22;;;;;;;2.55;1.48;;;;;;;15.43;100.00;100657.50;5074658;28;20032;-77
2021/06/21 08:53:48;;;;;;;2.53;1.48;;;;;;;15.48;100.00;100651.66;5058927;28;20044;-76
2021/06/21 08:56:14;;;;;;;2.50;1.40;;;;;;;15.58;100.00;100655.69;5082223;28;20559;-77
2021/06/21 08:58:40;;;;;;;3.70;1.38;;;;;;;15.68;100.00;100654.59;5072443;28;20031;-76
2021/06/21 09:01:09;;;;;;;1.83;0.90;;;;;;;15.64;100.00;100653.31;5078381;28;20085;-76
2021/06/21 09:03:44;;;;;;;4.22;0.80;;;;;;;15.67;100.00;100650.31;5061439;28;20532;-76
2021/06/21 09:06:20;;;;;;;1.23;0.70;;;;;;;15.63;100.00;100656.97;5079544;28;20052;-77
2021/06/21 09:08:57;;;;;;;3.55;0.88;;;;;;;15.58;100.00;100650.41;5059023;28;20040;-76
2021/06/21 09:11:45;;;;;;;6.68;1.20;;;;;;;15.49;100.00;100648.84;5062129;28;20396;-75
2021/06/21 09:14:25;;;;;;;1.95;1.10;;;;;;;15.46;100.00;100643.91;5083173;28;20044;-74
2021/06/21 09:16:52;;;;;;;1.25;0.95;;;;;;;15.49;100.00;100642.75;5043637;28;20044;-75
2021/06/21 09:19:18;;;;;;;2.58;0.80;;;;;;;15.53;100.00;100642.19;5072981;28;20099;-77
2021/06/21 09:21:44;;;;;;;4.13;0.85;;;;;;;15.52;100.00;100639.72;5059314;28;20037;-76
2021/06/21 09:24:19;;;;;;;4.40;0.90;;;;;;;15.50;100.00;100639.06;5073168;28;20047;-75
2021/06/21 09:26:46;;;;;;;3.45;0.95;;;;;;;15.50;100.00;100629.34;5047568;28;20091;-76
2021/06/21 09:29:12;;;;;;;0.80;0.80;;;;;;;15.57;100.00;100627.59;5061017;28;20071;-77
2021/06/21 09:31:56;;;;;;;2.33;1.02;;;;;;;15.64;100.00;100625.06;5077076;28;20677;-75
2021/06/21 09:34:24;;;;;;;2.20;1.00;;;;;;;15.62;100.00;100628.91;5075397;28;20040;-77
2021/06/21 09:36:52;;;;;;;1.52;0.90;;;;;;;15.62;100.00;100637.63;5066750;28;20039;-77
2021/06/21 09:39:22;;;;;;;2.08;1.05;;;;;;;15.72;100.00;100624.16;5077715;28;20152;-77
2021/06/21 09:42:07;;;;;;;0.70;0.70;;;;;;;15.74;100.00;100624.81;5038625;28;20126;-77
2021/06/21 09:44:46;;;;;;;2.65;0.70;;;;;;;15.64;100.00;100638.28;5040869;28;20047;-76
2021/06/21 09:47:13;;;;;;;0.60;0.60;;;;;;;15.68;100.00;100625.50;5073575;28;20060;-76
2021/06/21 09:50:09;;;;;;;1.38;0.52;;;;;;;15.70;100.00;100628.78;5051958;28;20134;-77
2021/06/21 09:53:01;;;;;;;1.50;0.82;;;;;;;15.70;100.00;100628.78;5057887;28;20067;-76
2021/06/21 09:55:33;;;;;;;8.63;1.10;;;;;;;15.69;100.00;100620.06;5066724;28;20035;-76
2021/06/21 09:58:14;;;;;;;1.85;0.90;;;;;;;15.75;100.00;100624.63;5069645;28;20049;-75
2021/06/21 10:00:50;;;;;;;1.10;1.00;;;;;;;15.86;100.00;100631.28;5072101;28;20055;-77
2021/06/21 10:03:26;;;;;;;1.20;1.08;;;;;;;15.92;100.00;100637.66;5078700;28;20895;-76
2021/06/21 10:06:00;;;;;;;1.83;0.80;;;;;;;16.00;100.00;100639.38;5067730;28;20040;-77
2021/06/21 10:08:39;;;;;;;0.75;0.75;;;;;;;15.91;100.00;100625.44;5038856;28;20064;-74
2021/06/21 10:11:07;;;;;;;1.80;1.00;;;;;;;15.83;100.00;100626.34;5045373;28;20063;-72
2021/06/21 10:13:33;;;;;;;1.00;0.90;;;;;;;15.93;100.00;100626.88;5045772;28;20044;-75
2021/06/21 10:15:59;;;;;;;0.88;0.88;;;;;;;15.90;100.00;100632.56;5043124;28;20066;-73
2021/06/21 10:18:24;;;;;;;1.05;0.98;;;;;;;16.09;100.00;100638.28;5075370;28;20131;-77
2021/06/21 10:20:50;;;;;;;2.38;1.00;;;;;;;16.09;100.00;100636.44;5068889;28;20040;-74
2021/06/21 10:23:15;;;;;;;0.88;0.88;;;;;;;16.11;100.00;100649.50;5055933;28;20109;-75
2021/06/21 10:25:41;;;;;;;1.08;0.98;;;;;;;16.11;100.00;100639.72;5062227;28;20040;-74
2021/06/21 10:28:07;;;;;;;1.00;0.80;;;;;;;16.03;100.00;100644.28;5063786;28;20039;-78
2021/06/21 10:30:32;;;;;;;1.13;0.90;;;;;;;16.11;100.00;100633.63;5073847;28;20036;-76
2021/06/21 10:33:00;;;;;;;2.00;1.10;;;;;;;16.24;100.00;100638.25;5071827;28;20032;-76
2021/06/21 10:35:30;;;;;;;1.67;1.00;;;;;;;16.19;100.00;100632.69;5053198;28;20029;-73
2021/06/21 10:37:59;;;;;;;2.45;1.25;;;;;;;16.34;100.00;100639.56;5081835;28;20028;-74
2021/06/21 10:40:25;;;;;;;1.83;1.38;;;;;;;16.12;100.00;100629.97;5057623;28;20034;-76
2021/06/21 10:42:51;;;;;;;1.52;1.38;;;;;;;16.21;100.00;100639.44;5076006;28;20040;-75
2021/06/21 10:45:25;;;;;;;3.90;1.10;;;;;;;16.24;100.00;100647.00;5059282;28;20032;-75
2021/06/21 10:48:09;;;;;;;1.27;1.17;;;;;;;16.30;100.00;100651.53;5063580;28;20125;-75
2021/06/21 10:50:49;;;;;;;3.17;1.20;;;;;;;16.47;100.00;100654.78;5057158;28;20664;-74
2021/06/21 10:53:17;;;;;;;1.00;1.00;;;;;;;16.57;100.00;100653.66;5063231;28;20093;-75
2021/06/21 10:55:52;;;;;;;4.80;1.60;;;;;;;16.53;100.00;100659.31;5085500;28;20032;-76
2021/06/21 10:58:18;;;;;;;4.20;1.25;;;;;;;16.49;100.00;100671.31;5089150;28;20483;-76
2021/06/21 11:00:46;;;;;;;1.75;1.30;;;;;;;16.46;100.00;100665.56;5056476;28;20045;-75
2021/06/21 11:03:29;;;;;;;1.52;1.00;;;;;;;16.41;99.74;100668.78;5074227;28;20037;-75
2021/06/21 11:06:00;;;;;;;1.90;1.30;;;;;;;16.49;100.00;100657.25;5084713;28;20036;-75
2021/06/21 11:08:40;;;;;;;6.65;1.90;;;;;;;16.61;100.00;100663.69;5075471;28;20548;-75
2021/06/21 11:11:38;;;;;;;3.08;1.60;;;;;;;16.76;100.00;100666.28;5055463;28;20032;-75
2021/06/21 11:14:17;;;;;;;3.95;1.80;;;;;;;16.71;97.47;100660.75;5052941;28;20044;-76
2021/06/21 11:16:46;;;;;;;2.35;1.80;;;;;;;16.86;99.58;100650.94;5076111;28;20497;-75
2021/06/21 11:19:21;;;;;;;2.33;1.70;;;;;;;16.97;97.02;100659.38;5065857;28;20044;-76
2021/06/21 11:21:57;;;;;;;3.08;1.55;;;;;;;16.87;96.77;100659.69;5073540;28;20044;-75
2021/06/21 11:24:35;;;;;;;2.17;1.40;;;;;;;16.75;96.79;100664.66;5091758;28;20032;-75
2021/06/21 11:27:06;;;;;;;2.58;1.60;;;;;;;16.75;97.67;100664.66;5065274;28;20062;-77